sensor_id;sensor_type;location;lat;lon;timestamp;pressure;altitude;pressure_sealevel;temperature;humidity
57442;BME280;43284;47.042;15.498;2023-05-22T00:01:23;97106.38;;;12.27;94.83
57442;BME280;43284;47.042;15.498;2023-05-22T00:03:51;97103.84;;;12.26;95.99
57442;BME280;43284;47.042;15.498;2023-05-22T00:06:17;97101.22;;;12.26;95.71
57442;BME280;43284;47.042;15.498;2023-05-22T00:08:43;97094.31;;;12.25;96.24
57442;BME280;43284;47.042;15.498;2023-05-22T00:11:09;97095.66;;;12.16;95.29
57442;BME280;43284;47.042;15.498;2023-05-22T00:13:34;97093.13;;;12.14;95.89
57442;BME280;43284;47.042;15.498;2023-05-22T00:16:00;97094.06;;;12.13;95.21
57442;BME280;43284;47.042;15.498;2023-05-22T00:18:25;97090.69;;;12.11;95.51
57442;BME280;43284;47.042;15.498;2023-05-22T00:20:51;97083.03;;;12.07;95.15
57442;BME280;43284;47.042;15.498;2023-05-22T00:23:17;97086.78;;;12.03;95.91
57442;BME280;43284;47.042;15.498;2023-05-22T00:25:43;97083.41;;;12.01;96.20
57442;BME280;43284;47.042;15.498;2023-05-22T00:28:10;97081.78;;;11.98;96.56
57442;BME280;43284;47.042;15.498;2023-05-22T00:30:35;97079.94;;;12.00;96.92
57442;BME280;43284;47.042;15.498;2023-05-22T00:33:01;97076.47;;;12.00;96.68
57442;BME280;43284;47.042;15.498;2023-05-22T00:35:28;97072.25;;;11.97;96.38
57442;BME280;43284;47.042;15.498;2023-05-22T00:37:53;97073.19;;;11.96;97.07
57442;BME280;43284;47.042;15.498;2023-05-22T00:40:20;97075.06;;;11.94;96.62
57442;BME280;43284;47.042;15.498;2023-05-22T00:42:45;97063.06;;;11.90;96.44
57442;BME280;43284;47.042;15.498;2023-05-22T00:45:14;97065.75;;;11.88;96.60
57442;BME280;43284;47.042;15.498;2023-05-22T00:47:40;97065.66;;;11.90;96.55
57442;BME280;43284;47.042;15.498;2023-05-22T00:50:06;97063.06;;;11.90;97.09
57442;BME280;43284;47.042;15.498;2023-05-22T00:52:36;97069.06;;;11.92;97.05
57442;BME280;43284;47.042;15.498;2023-05-22T00:55:04;97064.81;;;11.89;97.19
57442;BME280;43284;47.042;15.498;2023-05-22T00:57:32;97059.28;;;11.78;96.25
57442;BME280;43284;47.042;15.498;2023-05-22T00:59:59;97057.34;;;11.82;96.26
57442;BME280;43284;47.042;15.498;2023-05-22T01:02:25;97057.44;;;11.80;96.01
57442;BME280;43284;47.042;15.498;2023-05-22T01:04:52;97056.50;;;11.81;97.40
57442;BME280;43284;47.042;15.498;2023-05-22T01:07:22;97054.72;;;11.82;98.04
57442;BME280;43284;47.042;15.498;2023-05-22T01:09:48;97058.13;;;11.84;98.77
57442;BME280;43284;47.042;15.498;2023-05-22T01:15:02;97075.63;;;11.83;99.12
57442;BME280;43284;47.042;15.498;2023-05-22T01:20:09;97083.50;;;11.99;100.00
57442;BME280;43284;47.042;15.498;2023-05-22T01:23:02;97072.69;;;12.05;100.00
57442;BME280;43284;47.042;15.498;2023-05-22T01:30:59;97086.69;;;12.04;100.00
57442;BME280;43284;47.042;15.498;2023-05-22T01:33:27;97085.00;;;12.03;100.00
57442;BME280;43284;47.042;15.498;2023-05-22T01:35:56;97079.44;;;12.09;100.00
57442;BME280;43284;47.042;15.498;2023-05-22T01:38:24;97085.66;;;12.07;100.00
57442;BME280;43284;47.042;15.498;2023-05-22T01:40:49;97081.19;;;12.09;99.98
57442;BME280;43284;47.042;15.498;2023-05-22T01:43:16;97075.94;;;12.09;99.85
57442;BME280;43284;47.042;15.498;2023-05-22T01:45:41;97073.84;;;12.00;100.00
57442;BME280;43284;47.042;15.498;2023-05-22T01:48:07;97075.72;;;11.98;100.00
57442;BME280;43284;47.042;15.498;2023-05-22T01:50:33;97078.50;;;11.94;100.00
57442;BME280;43284;47.042;15.498;2023-05-22T01:55:45;97080.44;;;11.91;100.00
57442;BME280;43284;47.042;15.498;2023-05-22T02:01:03;97074.53;;;12.03;99.80
57442;BME280;43284;47.042;15.498;2023-05-22T02:03:31;97059.81;;;12.16;99.50
57442;BME280;43284;47.042;15.498;2023-05-22T02:06:00;97053.88;;;12.13;98.62
57442;BME280;43284;47.042;15.498;2023-05-22T02:08:27;97049.19;;;12.04;98.91
57442;BME280;43284;47.042;15.498;2023-05-22T02:10:55;97057.63;;;11.93;98.68
57442;BME280;43284;47.042;15.498;2023-05-22T02:13:21;97064.81;;;11.89;98.99
57442;BME280;43284;47.042;15.498;2023-05-22T02:15:48;97058.81;;;11.87;99.76
57442;BME280;43284;47.042;15.498;2023-05-22T02:18:15;97058.03;;;11.85;99.59
57442;BME280;43284;47.042;15.498;2023-05-22T02:20:40;97059.78;;;11.85;99.77
57442;BME280;43284;47.042;15.498;2023-05-22T02:23:06;97057.28;;;11.83;99.34
57442;BME280;43284;47.042;15.498;2023-05-22T02:25:32;97057.16;;;11.85;99.01
57442;BME280;43284;47.042;15.498;2023-05-22T02:27:58;97048.25;;;11.89;98.24
57442;BME280;43284;47.042;15.498;2023-05-22T02:30:23;97043.09;;;11.87;98.04
57442;BME280;43284;47.042;15.498;2023-05-22T02:32:49;97052.03;;;11.83;98.18
57442;BME280;43284;47.042;15.498;2023-05-22T02:35:14;97045.19;;;11.81;98.67
57442;BME280;43284;47.042;15.498;2023-05-22T02:37:40;97042.81;;;11.76;99.00
57442;BME280;43284;47.042;15.498;2023-05-22T02:40:07;97036.09;;;11.72;98.71
57442;BME280;43284;47.042;15.498;2023-05-22T02:42:33;97039.53;;;11.72;98.80
57442;BME280;43284;47.042;15.498;2023-05-22T02:44:59;97041.31;;;11.72;99.44
57442;BME280;43284;47.042;15.498;2023-05-22T02:47:24;97033.63;;;11.69;99.49
57442;BME280;43284;47.042;15.498;2023-05-22T02:49:50;97040.69;;;11.67;99.61
57442;BME280;43284;47.042;15.498;2023-05-22T02:52:16;97038.28;;;11.64;99.51
57442;BME280;43284;47.042;15.498;2023-05-22T02:54:41;97040.88;;;11.64;99.95
57442;BME280;43284;47.042;15.498;2023-05-22T02:57:07;97035.78;;;11.61;100.00
57442;BME280;43284;47.042;15.498;2023-05-22T02:59:32;97043.66;;;11.61;100.00
57442;BME280;43284;47.042;15.498;2023-05-22T03:02:00;97042.81;;;11.60;100.00
57442;BME280;43284;47.042;15.498;2023-05-22T03:04:25;97042.06;;;11.58;100.00
57442;BME280;43284;47.042;15.498;2023-05-22T03:06:51;97049.00;;;11.59;99.76
57442;BME280;43284;47.042;15.498;2023-05-22T03:09:17;97048.06;;;11.60;99.56
57442;BME280;43284;47.042;15.498;2023-05-22T03:11:44;97044.00;;;11.54;98.95
57442;BME280;43284;47.042;15.498;2023-05-22T03:14:09;97040.63;;;11.52;99.34
57442;BME280;43284;47.042;15.498;2023-05-22T03:16:35;97042.56;;;11.49;99.56
57442;BME280;43284;47.042;15.498;2023-05-22T03:19:11;97052.09;;;11.50;99.57
57442;BME280;43284;47.042;15.498;2023-05-22T03:21:37;97050.47;;;11.47;99.89
57442;BME280;43284;47.042;15.498;2023-05-22T03:24:03;97050.34;;;11.50;100.00
57442;BME280;43284;47.042;15.498;2023-05-22T03:26:29;97049.56;;;11.48;100.00
57442;BME280;43284;47.042;15.498;2023-05-22T03:28:55;97052.44;;;11.44;99.12
57442;BME280;43284;47.042;15.498;2023-05-22T03:31:23;97047.09;;;11.45;99.78
57442;BME280;43284;47.042;15.498;2023-05-22T03:33:48;97042.38;;;11.36;98.30
57442;BME280;43284;47.042;15.498;2023-05-22T03:36:14;97039.31;;;11.28;98.48
57442;BME280;43284;47.042;15.498;2023-05-22T03:38:40;97043.63;;;11.29;99.43
57442;BME280;43284;47.042;15.498;2023-05-22T03:41:06;97051.47;;;11.29;99.87
57442;BME280;43284;47.042;15.498;2023-05-22T03:43:32;97043.38;;;11.33;99.87
57442;BME280;43284;47.042;15.498;2023-05-22T03:45:58;97038.75;;;11.39;99.96
57442;BME280;43284;47.042;15.498;2023-05-22T03:48:24;97029.97;;;11.40;100.00
57442;BME280;43284;47.042;15.498;2023-05-22T03:50:49;97030.56;;;11.45;100.00
57442;BME280;43284;47.042;15.498;2023-05-22T03:53:15;97029.53;;;11.47;100.00
57442;BME280;43284;47.042;15.498;2023-05-22T03:55:41;97033.94;;;11.47;100.00
57442;BME280;43284;47.042;15.498;2023-05-22T03:58:06;97038.16;;;11.49;100.00
57442;BME280;43284;47.042;15.498;2023-05-22T04:00:32;97033.03;;;11.48;100.00
57442;BME280;43284;47.042;15.498;2023-05-22T04:02:59;97036.50;;;11.48;100.00
57442;BME280;43284;47.042;15.498;2023-05-22T04:05:25;97037.91;;;11.54;100.00
57442;BME280;43284;47.042;15.498;2023-05-22T04:07:50;97040.53;;;11.54;100.00
57442;BME280;43284;47.042;15.498;2023-05-22T04:10:16;97036.16;;;11.54;100.00
57442;BME280;43284;47.042;15.498;2023-05-22T04:12:42;97039.44;;;11.58;100.00
57442;BME280;43284;47.042;15.498;2023-05-22T04:15:07;97043.66;;;11.61;100.00
57442;BME280;43284;47.042;15.498;2023-05-22T04:17:38;97039.94;;;11.65;100.00
57442;BME280;43284;47.042;15.498;2023-05-22T04:20:04;97041.47;;;11.69;100.00
57442;BME280;43284;47.042;15.498;2023-05-22T04:22:30;97034.31;;;11.72;100.00
57442;BME280;43284;47.042;15.498;2023-05-22T04:24:57;97039.34;;;11.75;100.00
57442;BME280;43284;47.042;15.498;2023-05-22T04:27:23;97037.56;;;11.76;100.00
57442;BME280;43284;47.042;15.498;2023-05-22T04:29:49;97040.03;;;11.79;100.00
57442;BME280;43284;47.042;15.498;2023-05-22T04:32:15;97034.88;;;11.78;100.00
57442;BME280;43284;47.042;15.498;2023-05-22T04:34:47;97042.59;;;11.81;100.00
57442;BME280;43284;47.042;15.498;2023-05-22T04:37:13;97039.84;;;11.82;100.00
57442;BME280;43284;47.042;15.498;2023-05-22T04:39:45;97044.19;;;11.83;100.00
57442;BME280;43284;47.042;15.498;2023-05-22T04:42:14;97042.19;;;11.88;100.00
57442;BME280;43284;47.042;15.498;2023-05-22T04:44:40;97043.84;;;11.89;100.00
57442;BME280;43284;47.042;15.498;2023-05-22T04:47:07;97045.47;;;11.92;100.00
57442;BME280;43284;47.042;15.498;2023-05-22T04:49:39;97041.75;;;11.96;100.00
57442;BME280;43284;47.042;15.498;2023-05-22T04:52:06;97040.75;;;11.99;100.00
57442;BME280;43284;47.042;15.498;2023-05-22T04:54:32;97038.78;;;12.02;100.00
57442;BME280;43284;47.042;15.498;2023-05-22T04:56:58;97042.91;;;12.06;100.00
57442;BME280;43284;47.042;15.498;2023-05-22T04:59:24;97047.88;;;12.11;100.00
57442;BME280;43284;47.042;15.498;2023-05-22T05:01:51;97052.72;;;12.19;100.00
57442;BME280;43284;47.042;15.498;2023-05-22T05:04:16;97055.91;;;12.24;100.00
57442;BME280;43284;47.042;15.498;2023-05-22T05:06:42;97045.91;;;12.30;100.00
57442;BME280;43284;47.042;15.498;2023-05-22T05:09:08;97052.50;;;12.38;100.00
57442;BME280;43284;47.042;15.498;2023-05-22T05:11:34;97053.84;;;12.45;100.00
57442;BME280;43284;47.042;15.498;2023-05-22T05:13:59;97055.25;;;12.50;100.00
57442;BME280;43284;47.042;15.498;2023-05-22T05:16:25;97054.81;;;12.58;100.00
57442;BME280;43284;47.042;15.498;2023-05-22T05:18:50;97056.81;;;12.69;100.00
57442;BME280;43284;47.042;15.498;2023-05-22T05:21:18;97065.16;;;12.75;100.00
57442;BME280;43284;47.042;15.498;2023-05-22T05:23:45;97065.44;;;12.85;100.00
57442;BME280;43284;47.042;15.498;2023-05-22T05:26:11;97052.06;;;12.90;100.00
57442;BME280;43284;47.042;15.498;2023-05-22T05:28:36;97054.97;;;12.99;100.00
57442;BME280;43284;47.042;15.498;2023-05-22T05:31:02;97051.88;;;13.07;100.00
57442;BME280;43284;47.042;15.498;2023-05-22T05:33:27;97058.19;;;13.19;100.00
57442;BME280;43284;47.042;15.498;2023-05-22T05:35:53;97054.16;;;13.28;100.00
57442;BME280;43284;47.042;15.498;2023-05-22T05:38:18;97059.81;;;13.36;100.00
57442;BME280;43284;47.042;15.498;2023-05-22T05:40:44;97064.31;;;13.48;100.00
57442;BME280;43284;47.042;15.498;2023-05-22T05:43:11;97058.28;;;13.60;100.00
57442;BME280;43284;47.042;15.498;2023-05-22T05:45:40;97058.84;;;13.80;100.00
57442;BME280;43284;47.042;15.498;2023-05-22T05:48:06;97055.81;;;14.13;96.58
57442;BME280;43284;47.042;15.498;2023-05-22T05:50:32;97044.72;;;14.22;98.63
57442;BME280;43284;47.042;15.498;2023-05-22T05:52:57;97054.56;;;14.19;98.28
57442;BME280;43284;47.042;15.498;2023-05-22T05:55:23;97045.72;;;14.34;99.09
57442;BME280;43284;47.042;15.498;2023-05-22T05:57:48;97051.72;;;14.49;96.79
57442;BME280;43284;47.042;15.498;2023-05-22T06:00:14;97047.66;;;14.58;95.97
57442;BME280;43284;47.042;15.498;2023-05-22T06:02:40;97045.78;;;14.60;94.80
57442;BME280;43284;47.042;15.498;2023-05-22T06:05:06;97041.38;;;14.73;90.56
57442;BME280;43284;47.042;15.498;2023-05-22T06:07:33;97044.78;;;14.88;89.28
57442;BME280;43284;47.042;15.498;2023-05-22T06:10:05;97043.81;;;15.02;88.84
57442;BME280;43284;47.042;15.498;2023-05-22T06:12:31;97042.34;;;15.11;88.93
57442;BME280;43284;47.042;15.498;2023-05-22T06:14:57;97047.19;;;15.17;89.34
57442;BME280;43284;47.042;15.498;2023-05-22T06:17:22;97051.13;;;15.24;88.57
57442;BME280;43284;47.042;15.498;2023-05-22T06:19:48;97046.13;;;15.32;87.45
57442;BME280;43284;47.042;15.498;2023-05-22T06:22:13;97049.09;;;15.40;86.06
57442;BME280;43284;47.042;15.498;2023-05-22T06:24:39;97039.47;;;15.52;85.62
57442;BME280;43284;47.042;15.498;2023-05-22T06:27:05;97047.47;;;15.76;86.10
57442;BME280;43284;47.042;15.498;2023-05-22T06:29:30;97044.63;;;15.79;85.26
57442;BME280;43284;47.042;15.498;2023-05-22T06:31:56;97044.78;;;15.89;83.90
57442;BME280;43284;47.042;15.498;2023-05-22T06:34:21;97040.53;;;15.99;82.72
57442;BME280;43284;47.042;15.498;2023-05-22T06:36:47;97040.00;;;16.07;81.32
57442;BME280;43284;47.042;15.498;2023-05-22T06:39:16;97048.19;;;16.15;80.83
57442;BME280;43284;47.042;15.498;2023-05-22T06:41:42;97043.91;;;16.25;81.22
57442;BME280;43284;47.042;15.498;2023-05-22T06:44:07;97045.03;;;16.34;80.89
57442;BME280;43284;47.042;15.498;2023-05-22T06:46:33;97048.69;;;16.44;79.80
57442;BME280;43284;47.042;15.498;2023-05-22T06:48:58;97055.19;;;16.52;78.70
57442;BME280;43284;47.042;15.498;2023-05-22T06:51:24;97053.31;;;16.65;76.34
57442;BME280;43284;47.042;15.498;2023-05-22T06:53:50;97050.19;;;16.95;75.11
57442;BME280;43284;47.042;15.498;2023-05-22T06:56:17;97045.31;;;17.13;75.01
57442;BME280;43284;47.042;15.498;2023-05-22T06:58:42;97041.34;;;17.19;73.25
57442;BME280;43284;47.042;15.498;2023-05-22T07:01:08;97045.31;;;17.24;73.00
57442;BME280;43284;47.042;15.498;2023-05-22T07:03:33;97042.81;;;17.45;71.11
57442;BME280;43284;47.042;15.498;2023-05-22T07:05:59;97047.13;;;17.46;73.41
57442;BME280;43284;47.042;15.498;2023-05-22T07:08:24;97043.53;;;17.59;71.69
57442;BME280;43284;47.042;15.498;2023-05-22T07:10:50;97041.97;;;17.56;71.93
57442;BME280;43284;47.042;15.498;2023-05-22T07:13:16;97042.06;;;17.66;71.21
57442;BME280;43284;47.042;15.498;2023-05-22T07:15:42;97038.94;;;17.72;71.68
57442;BME280;43284;47.042;15.498;2023-05-22T07:18:07;97039.78;;;17.84;71.76
57442;BME280;43284;47.042;15.498;2023-05-22T07:20:34;97033.91;;;17.91;72.54
57442;BME280;43284;47.042;15.498;2023-05-22T07:23:00;97030.75;;;17.98;71.13
57442;BME280;43284;47.042;15.498;2023-05-22T07:25:25;97035.03;;;18.10;70.72
57442;BME280;43284;47.042;15.498;2023-05-22T07:27:51;97029.47;;;18.24;69.90
57442;BME280;43284;47.042;15.498;2023-05-22T07:30:16;97026.91;;;18.34;70.89
57442;BME280;43284;47.042;15.498;2023-05-22T07:32:42;97027.41;;;18.60;68.49
57442;BME280;43284;47.042;15.498;2023-05-22T07:35:08;97033.16;;;18.65;68.88
57442;BME280;43284;47.042;15.498;2023-05-22T07:37:35;97036.84;;;18.74;68.83
57442;BME280;43284;47.042;15.498;2023-05-22T07:40:03;97034.41;;;18.82;69.31
57442;BME280;43284;47.042;15.498;2023-05-22T07:42:31;97034.16;;;18.85;68.51
57442;BME280;43284;47.042;15.498;2023-05-22T07:44:56;97028.69;;;18.98;67.73
57442;BME280;43284;47.042;15.498;2023-05-22T07:47:22;97027.47;;;19.02;68.64
57442;BME280;43284;47.042;15.498;2023-05-22T07:49:47;97024.84;;;19.12;70.38
57442;BME280;43284;47.042;15.498;2023-05-22T07:52:13;97028.41;;;19.22;68.31
57442;BME280;43284;47.042;15.498;2023-05-22T07:54:38;97027.59;;;19.31;67.56
57442;BME280;43284;47.042;15.498;2023-05-22T07:57:04;97033.50;;;19.35;67.37
57442;BME280;43284;47.042;15.498;2023-05-22T07:59:29;97028.03;;;19.37;65.09
57442;BME280;43284;47.042;15.498;2023-05-22T08:01:57;97030.75;;;19.46;65.65
57442;BME280;43284;47.042;15.498;2023-05-22T08:04:23;97026.41;;;19.76;64.18
57442;BME280;43284;47.042;15.498;2023-05-22T08:06:48;97015.25;;;19.72;63.00
57442;BME280;43284;47.042;15.498;2023-05-22T08:09:14;97017.91;;;19.72;64.64
57442;BME280;43284;47.042;15.498;2023-05-22T08:11:39;97019.03;;;19.80;66.85
57442;BME280;43284;47.042;15.498;2023-05-22T08:14:06;97018.06;;;19.90;62.78
57442;BME280;43284;47.042;15.498;2023-05-22T08:16:32;97025.19;;;19.90;62.95
57442;BME280;43284;47.042;15.498;2023-05-22T08:18:57;97024.38;;;19.99;62.44
57442;BME280;43284;47.042;15.498;2023-05-22T08:21:23;97023.13;;;20.03;63.62
57442;BME280;43284;47.042;15.498;2023-05-22T08:23:48;97017.56;;;20.16;59.29
57442;BME280;43284;47.042;15.498;2023-05-22T08:26:14;97013.09;;;20.26;62.41
57442;BME280;43284;47.042;15.498;2023-05-22T08:28:40;97013.91;;;20.27;64.65
57442;BME280;43284;47.042;15.498;2023-05-22T08:31:09;97017.69;;;20.24;62.14
57442;BME280;43284;47.042;15.498;2023-05-22T08:33:35;97003.03;;;20.40;60.18
57442;BME280;43284;47.042;15.498;2023-05-22T08:36:01;97002.75;;;20.52;58.88
57442;BME280;43284;47.042;15.498;2023-05-22T08:38:26;97007.94;;;20.64;61.76
57442;BME280;43284;47.042;15.498;2023-05-22T08:40:53;97013.69;;;20.69;63.74
57442;BME280;43284;47.042;15.498;2023-05-22T08:43:22;97013.66;;;20.78;63.54
57442;BME280;43284;47.042;15.498;2023-05-22T08:46:14;97008.19;;;20.90;64.70
57442;BME280;43284;47.042;15.498;2023-05-22T08:48:40;96998.94;;;20.94;63.25
57442;BME280;43284;47.042;15.498;2023-05-22T08:51:07;97006.06;;;21.03;64.62
57442;BME280;43284;47.042;15.498;2023-05-22T08:53:36;97006.31;;;21.10;63.17
57442;BME280;43284;47.042;15.498;2023-05-22T08:56:06;96996.38;;;21.12;60.72
57442;BME280;43284;47.042;15.498;2023-05-22T08:58:34;97007.00;;;21.12;60.20
57442;BME280;43284;47.042;15.498;2023-05-22T09:01:01;97003.78;;;21.18;61.14
57442;BME280;43284;47.042;15.498;2023-05-22T09:03:28;96997.88;;;21.24;58.94
57442;BME280;43284;47.042;15.498;2023-05-22T09:06:00;96992.66;;;21.42;60.50
57442;BME280;43284;47.042;15.498;2023-05-22T09:08:27;96984.78;;;21.40;58.71
57442;BME280;43284;47.042;15.498;2023-05-22T09:10:55;96986.81;;;21.29;58.20
57442;BME280;43284;47.042;15.498;2023-05-22T09:13:29;96991.13;;;21.39;58.73
57442;BME280;43284;47.042;15.498;2023-05-22T09:15:59;96991.94;;;21.50;62.35
57442;BME280;43284;47.042;15.498;2023-05-22T09:18:28;96985.69;;;21.69;62.80
57442;BME280;43284;47.042;15.498;2023-05-22T09:20:57;96988.91;;;21.90;61.59
57442;BME280;43284;47.042;15.498;2023-05-22T09:23:26;96983.16;;;21.95;58.79
57442;BME280;43284;47.042;15.498;2023-05-22T09:26:00;96982.09;;;22.06;56.96
57442;BME280;43284;47.042;15.498;2023-05-22T09:28:26;96990.53;;;22.29;57.58
57442;BME280;43284;47.042;15.498;2023-05-22T09:30:54;96979.88;;;22.29;53.71
57442;BME280;43284;47.042;15.498;2023-05-22T09:33:21;96975.72;;;22.16;54.89
57442;BME280;43284;47.042;15.498;2023-05-22T09:35:47;96984.53;;;22.17;54.94
57442;BME280;43284;47.042;15.498;2023-05-22T09:38:13;96986.78;;;22.21;55.62
57442;BME280;43284;47.042;15.498;2023-05-22T09:40:40;96981.03;;;22.16;54.68
57442;BME280;43284;47.042;15.498;2023-05-22T09:43:10;96986.34;;;22.26;54.54
57442;BME280;43284;47.042;15.498;2023-05-22T09:45:36;96986.25;;;22.36;57.92
57442;BME280;43284;47.042;15.498;2023-05-22T09:48:06;96974.53;;;22.29;55.25
57442;BME280;43284;47.042;15.498;2023-05-22T09:50:32;96982.53;;;22.29;55.38
57442;BME280;43284;47.042;15.498;2023-05-22T09:53:03;96984.41;;;22.36;54.10
57442;BME280;43284;47.042;15.498;2023-05-22T09:55:29;96971.75;;;22.56;55.46
57442;BME280;43284;47.042;15.498;2023-05-22T09:57:57;96983.56;;;22.54;52.50
57442;BME280;43284;47.042;15.498;2023-05-22T10:00:24;96972.91;;;22.54;53.89
57442;BME280;43284;47.042;15.498;2023-05-22T10:02:53;96980.53;;;22.49;53.72
57442;BME280;43284;47.042;15.498;2023-05-22T10:05:24;96974.16;;;22.41;53.18
57442;BME280;43284;47.042;15.498;2023-05-22T10:07:55;96973.00;;;22.44;54.82
57442;BME280;43284;47.042;15.498;2023-05-22T10:10:23;96977.56;;;22.52;54.56
57442;BME280;43284;47.042;15.498;2023-05-22T10:12:56;96970.44;;;22.52;53.51
57442;BME280;43284;47.042;15.498;2023-05-22T10:15:25;96972.88;;;22.72;53.39
57442;BME280;43284;47.042;15.498;2023-05-22T10:17:51;96961.38;;;22.71;53.82
57442;BME280;43284;47.042;15.498;2023-05-22T10:20:17;96963.84;;;22.65;52.25
57442;BME280;43284;47.042;15.498;2023-05-22T10:22:45;96960.72;;;22.69;52.99
57442;BME280;43284;47.042;15.498;2023-05-22T10:25:11;96967.06;;;22.94;55.06
57442;BME280;43284;47.042;15.498;2023-05-22T10:27:38;96966.69;;;23.15;53.82
57442;BME280;43284;47.042;15.498;2023-05-22T10:30:10;96969.53;;;23.14;53.00
57442;BME280;43284;47.042;15.498;2023-05-22T10:35:19;96959.00;;;23.38;50.43
57442;BME280;43284;47.042;15.498;2023-05-22T10:37:51;96955.78;;;23.27;50.58
57442;BME280;43284;47.042;15.498;2023-05-22T10:40:29;96959.63;;;23.32;51.23
57442;BME280;43284;47.042;15.498;2023-05-22T10:43:00;96952.97;;;23.36;51.60
57442;BME280;43284;47.042;15.498;2023-05-22T10:45:26;96954.56;;;23.55;52.82
57442;BME280;43284;47.042;15.498;2023-05-22T10:50:32;96946.69;;;23.96;52.15
57442;BME280;43284;47.042;15.498;2023-05-22T10:53:24;96944.56;;;24.08;50.57
57442;BME280;43284;47.042;15.498;2023-05-22T10:55:52;96939.91;;;24.18;47.75
57442;BME280;43284;47.042;15.498;2023-05-22T10:58:29;96938.72;;;24.29;48.57
57442;BME280;43284;47.042;15.498;2023-05-22T11:01:18;96938.91;;;24.19;47.28
57442;BME280;43284;47.042;15.498;2023-05-22T11:03:57;96937.38;;;24.09;48.15
57442;BME280;43284;47.042;15.498;2023-05-22T11:06:39;96931.69;;;24.12;50.72
57442;BME280;43284;47.042;15.498;2023-05-22T11:14:55;96918.03;;;24.64;49.11
57442;BME280;43284;47.042;15.498;2023-05-22T11:17:28;96918.38;;;24.61;47.51
57442;BME280;43284;47.042;15.498;2023-05-22T11:22:43;96914.53;;;24.63;47.57
57442;BME280;43284;47.042;15.498;2023-05-22T11:25:10;96903.69;;;24.73;46.00
57442;BME280;43284;47.042;15.498;2023-05-22T11:27:40;96908.81;;;24.91;49.63
57442;BME280;43284;47.042;15.498;2023-05-22T11:30:06;96904.47;;;24.90;46.23
57442;BME280;43284;47.042;15.498;2023-05-22T11:32:36;96899.91;;;25.07;48.28
57442;BME280;43284;47.042;15.498;2023-05-22T11:35:02;96897.38;;;25.14;47.25
57442;BME280;43284;47.042;15.498;2023-05-22T11:37:30;96891.88;;;25.07;46.09
57442;BME280;43284;47.042;15.498;2023-05-22T11:39:57;96888.66;;;25.28;44.86
57442;BME280;43284;47.042;15.498;2023-05-22T11:42:23;96885.63;;;25.31;41.31
57442;BME280;43284;47.042;15.498;2023-05-22T11:44:49;96886.28;;;25.41;44.18
57442;BME280;43284;47.042;15.498;2023-05-22T11:47:15;96885.28;;;25.34;44.27
57442;BME280;43284;47.042;15.498;2023-05-22T11:49:41;96883.19;;;25.21;42.82
57442;BME280;43284;47.042;15.498;2023-05-22T11:52:08;96878.63;;;25.30;46.66
57442;BME280;43284;47.042;15.498;2023-05-22T11:54:34;96872.91;;;25.33;47.60
57442;BME280;43284;47.042;15.498;2023-05-22T11:57:02;96873.41;;;25.68;44.86
57442;BME280;43284;47.042;15.498;2023-05-22T11:59:28;96870.72;;;25.99;39.86
57442;BME280;43284;47.042;15.498;2023-05-22T12:01:53;96863.56;;;26.15;36.77
57442;BME280;43284;47.042;15.498;2023-05-22T12:04:19;96867.69;;;26.40;39.65
57442;BME280;43284;47.042;15.498;2023-05-22T12:06:45;96870.38;;;26.63;40.91
57442;BME280;43284;47.042;15.498;2023-05-22T12:09:10;96867.78;;;26.85;41.62
57442;BME280;43284;47.042;15.498;2023-05-22T12:11:36;96860.22;;;26.88;40.41
57442;BME280;43284;47.042;15.498;2023-05-22T12:14:02;96867.16;;;27.12;40.57
57442;BME280;43284;47.042;15.498;2023-05-22T12:16:35;96867.81;;;27.29;39.43
57442;BME280;43284;47.042;15.498;2023-05-22T12:19:10;96851.63;;;27.38;36.48
57442;BME280;43284;47.042;15.498;2023-05-22T12:21:37;96864.81;;;27.54;37.35
57442;BME280;43284;47.042;15.498;2023-05-22T12:24:04;96858.03;;;27.58;37.62
57442;BME280;43284;47.042;15.498;2023-05-22T12:26:33;96864.91;;;27.46;38.52
57442;BME280;43284;47.042;15.498;2023-05-22T12:28:59;96862.28;;;27.52;36.80
57442;BME280;43284;47.042;15.498;2023-05-22T12:31:25;96859.97;;;27.64;38.56
57442;BME280;43284;47.042;15.498;2023-05-22T12:33:55;96852.78;;;27.50;38.55
57442;BME280;43284;47.042;15.498;2023-05-22T12:36:32;96857.84;;;27.60;37.29
57442;BME280;43284;47.042;15.498;2023-05-22T12:38:57;96851.22;;;27.77;37.47
57442;BME280;43284;47.042;15.498;2023-05-22T12:41:23;96852.63;;;27.73;37.28
57442;BME280;43284;47.042;15.498;2023-05-22T12:43:48;96849.59;;;27.61;34.38
57442;BME280;43284;47.042;15.498;2023-05-22T12:46:14;96854.50;;;27.94;34.70
57442;BME280;43284;47.042;15.498;2023-05-22T12:48:40;96853.56;;;28.02;36.75
57442;BME280;43284;47.042;15.498;2023-05-22T12:51:05;96854.72;;;27.92;36.24
57442;BME280;43284;47.042;15.498;2023-05-22T12:53:33;96857.59;;;28.12;38.70
57442;BME280;43284;47.042;15.498;2023-05-22T12:55:59;96850.88;;;28.23;36.51
57442;BME280;43284;47.042;15.498;2023-05-22T12:58:24;96853.22;;;28.11;38.30
57442;BME280;43284;47.042;15.498;2023-05-22T13:00:50;96861.56;;;28.17;35.37
57442;BME280;43284;47.042;15.498;2023-05-22T13:03:15;96850.22;;;28.21;34.99
57442;BME280;43284;47.042;15.498;2023-05-22T13:05:41;96844.97;;;28.13;36.17
57442;BME280;43284;47.042;15.498;2023-05-22T13:08:07;96845.53;;;28.30;36.45
57442;BME280;43284;47.042;15.498;2023-05-22T13:10:32;96856.56;;;28.13;34.68
57442;BME280;43284;47.042;15.498;2023-05-22T13:12:59;96842.41;;;28.26;35.52
57442;BME280;43284;47.042;15.498;2023-05-22T13:15:25;96840.81;;;28.53;35.17
57442;BME280;43284;47.042;15.498;2023-05-22T13:17:54;96846.81;;;28.34;35.62